Awendaw, South Carolina
Current Conditions -  °F | °C
As of 3:55 PM on Tuesday 21 Oct 2014 (Local Time) from KLRO Reporting Station
Clear Clear  
Wind Chill: 79°   Ceiling: Unl
Heat Index: 79°   Visibility: 9mi
Dew Point: 54°   Wind: 7mph
Humidity: 42%   Direction: 270°W
Pressure: 29.87"   Gusts: NA
Location:  33.04°N, 79.61°W
Report Text: KLRO 211955Z AUTO 27006KT 9SM CLR 26/12 A2987 RMK AO2 PWINO PNO
Loading
Personal Weather Stations






























Interactive Weather Map
Tropical Storm Tracking
New forecast layout! Learn more

10-Day Weather Forecast

Advertisements
Track Severe Weather on mobile